createdAt,value
2018-03-30T00:00:31.327Z,7.07
2018-03-30T00:02:58.925Z,7.40
2018-03-30T00:05:26.542Z,7.63
2018-03-30T00:07:54.119Z,8.03
2018-03-30T00:10:21.738Z,10.37
2018-03-30T00:12:49.332Z,10.33
2018-03-30T00:15:16.949Z,10.23
2018-03-30T00:17:44.539Z,8.63
2018-03-30T00:20:12.888Z,8.67
2018-03-30T00:22:40.463Z,9.23
2018-03-30T00:25:08.058Z,6.90
2018-03-30T00:27:35.661Z,7.90
2018-03-30T00:30:03.253Z,7.57
2018-03-30T00:32:31.595Z,10.33
2018-03-30T00:34:59.236Z,8.50
2018-03-30T00:37:26.820Z,8.80
2018-03-30T00:39:54.413Z,9.63
2018-03-30T00:42:22.737Z,12.27
2018-03-30T00:44:50.329Z,17.30
2018-03-30T00:47:17.889Z,12.90
2018-03-30T00:49:45.491Z,9.77
2018-03-30T00:52:13.106Z,9.60
2018-03-30T00:54:40.660Z,8.37
2018-03-30T00:57:08.688Z,8.97
2018-03-30T00:59:36.269Z,11.10
2018-03-30T01:02:03.861Z,11.17
2018-03-30T01:04:31.460Z,10.63
2018-03-30T01:06:59.144Z,8.33
2018-03-30T01:09:26.724Z,7.17
2018-03-30T01:11:54.292Z,6.43
2018-03-30T01:14:21.875Z,7.77
2018-03-30T01:16:50.223Z,10.20
2018-03-30T01:19:17.791Z,8.90
2018-03-30T01:21:45.386Z,11.97
2018-03-30T01:24:12.966Z,10.50
2018-03-30T01:26:40.551Z,10.90
2018-03-30T01:29:08.871Z,16.83
2018-03-30T01:31:37.222Z,7.30
2018-03-30T01:34:04.788Z,8.50
2018-03-30T01:36:32.376Z,7.37
2018-03-30T01:39:00.729Z,8.37
2018-03-30T01:41:29.093Z,7.43
2018-03-30T01:43:56.680Z,9.63
2018-03-30T01:46:24.271Z,9.17
2018-03-30T01:48:51.838Z,9.03
2018-03-30T01:51:19.415Z,8.70
2018-03-30T01:53:47.775Z,5.87
2018-03-30T01:56:16.152Z,8.33
2018-03-30T01:58:43.709Z,11.13
2018-03-30T02:01:11.309Z,8.10
2018-03-30T02:03:39.152Z,7.63
2018-03-30T02:06:06.741Z,8.50
2018-03-30T02:08:34.304Z,6.47
2018-03-30T02:11:01.984Z,6.30
2018-03-30T02:13:29.544Z,12.40
2018-03-30T02:15:57.162Z,7.97
2018-03-30T02:18:25.514Z,9.13
2018-03-30T02:20:53.081Z,8.00
2018-03-30T02:23:20.652Z,9.37
2018-03-30T02:25:48.213Z,9.70
2018-03-30T02:28:16.556Z,8.07
2018-03-30T02:30:44.111Z,8.23
2018-03-30T02:33:11.725Z,7.80
2018-03-30T02:35:40.076Z,9.57
2018-03-30T02:38:08.636Z,7.73
2018-03-30T02:40:36.980Z,9.53
2018-03-30T02:43:04.574Z,10.27
2018-03-30T02:45:32.164Z,10.90
2018-03-30T02:47:59.774Z,8.30
2018-03-30T02:50:27.344Z,14.70
2018-03-30T02:52:54.948Z,10.03
2018-03-30T02:55:23.288Z,8.60
2018-03-30T02:57:50.975Z,11.83
2018-03-30T03:00:18.518Z,8.60
2018-03-30T03:02:46.110Z,8.40
2018-03-30T03:05:14.450Z,8.70
2018-03-30T03:07:42.048Z,8.37
2018-03-30T03:10:10.403Z,15.03
2018-03-30T03:12:37.987Z,10.43
2018-03-30T03:15:06.316Z,8.53
2018-03-30T03:17:33.920Z,8.40
2018-03-30T03:20:01.476Z,10.73
2018-03-30T03:22:29.064Z,8.70
2018-03-30T03:24:57.415Z,9.63
2018-03-30T03:27:25.030Z,11.47
2018-03-30T03:29:52.603Z,10.80
2018-03-30T03:32:20.955Z,9.93
2018-03-30T03:34:49.333Z,8.73
2018-03-30T03:37:16.933Z,9.13
2018-03-30T03:39:44.516Z,12.10
2018-03-30T03:42:12.091Z,11.60
2018-03-30T03:44:39.726Z,15.37
2018-03-30T03:47:07.300Z,12.77
2018-03-30T03:49:34.908Z,13.13
2018-03-30T03:52:02.484Z,8.43
2018-03-30T03:54:30.130Z,10.20
2018-03-30T03:56:57.808Z,10.43
2018-03-30T03:59:26.161Z,11.03
2018-03-30T04:01:53.838Z,9.83
2018-03-30T04:04:21.430Z,9.77
2018-03-30T04:06:49.001Z,9.50
2018-03-30T04:09:18.226Z,10.50
2018-03-30T04:11:47.459Z,12.23
2018-03-30T04:14:17.160Z,10.47
2018-03-30T04:16:46.384Z,11.77
2018-03-30T04:19:15.603Z,9.20
2018-03-30T04:21:44.811Z,8.90
2018-03-30T04:24:14.078Z,12.90
2018-03-30T04:26:43.286Z,10.07
2018-03-30T04:29:12.536Z,10.20
2018-03-30T04:31:41.746Z,9.17
2018-03-30T04:34:11.016Z,13.63
2018-03-30T04:36:40.320Z,11.83
2018-03-30T04:39:09.577Z,9.37
2018-03-30T04:41:38.802Z,11.30
2018-03-30T04:44:08.037Z,11.23
2018-03-30T04:46:37.248Z,10.07
2018-03-30T04:49:06.508Z,14.17
2018-03-30T04:51:35.726Z,10.07
2018-03-30T04:54:04.972Z,11.97
2018-03-30T04:56:34.203Z,13.70
2018-03-30T04:59:03.415Z,11.00
2018-03-30T05:01:32.638Z,9.77
2018-03-30T05:04:01.870Z,11.07
2018-03-30T05:06:31.192Z,11.87
2018-03-30T05:09:00.408Z,14.87
2018-03-30T05:11:29.645Z,12.03
2018-03-30T05:13:58.872Z,12.13
2018-03-30T05:16:28.117Z,12.20
2018-03-30T05:18:57.344Z,11.27
2018-03-30T05:21:26.577Z,11.73
2018-03-30T05:23:55.782Z,11.43
2018-03-30T05:26:25.671Z,11.00
2018-03-30T05:28:54.964Z,11.83
2018-03-30T05:31:24.194Z,11.90
2018-03-30T05:33:53.399Z,15.10
2018-03-30T05:36:21.007Z,11.47
2018-03-30T05:38:49.354Z,11.53
2018-03-30T05:41:16.960Z,12.57
2018-03-30T05:43:44.552Z,13.80
2018-03-30T05:46:12.207Z,11.40
2018-03-30T05:48:39.770Z,14.30
2018-03-30T05:51:07.346Z,9.60
2018-03-30T05:53:34.910Z,13.03
2018-03-30T05:56:02.501Z,17.30
2018-03-30T05:58:30.067Z,14.10
2018-03-30T06:00:58.419Z,12.83
2018-03-30T06:03:26.005Z,11.70
2018-03-30T06:05:54.362Z,14.30
2018-03-30T06:08:21.957Z,16.30
2018-03-30T06:10:50.313Z,15.03
2018-03-30T06:13:17.890Z,15.80
2018-03-30T06:15:46.252Z,14.13
2018-03-30T06:18:13.834Z,15.90
2018-03-30T06:20:42.205Z,13.70
2018-03-30T06:23:10.557Z,12.50
2018-03-30T06:25:38.725Z,21.00
2018-03-30T06:28:06.356Z,19.23
2018-03-30T06:30:33.926Z,14.27
2018-03-30T06:33:01.781Z,18.37
2018-03-30T06:35:29.351Z,14.00
2018-03-30T06:37:56.933Z,15.27
2018-03-30T06:40:24.495Z,14.40
2018-03-30T06:42:52.119Z,17.57
2018-03-30T06:45:19.704Z,15.83
2018-03-30T06:47:47.347Z,16.93
2018-03-30T06:50:14.907Z,15.73
2018-03-30T06:52:42.558Z,16.27
2018-03-30T06:55:10.142Z,14.10
2018-03-30T06:57:38.508Z,17.00
2018-03-30T07:00:06.095Z,15.30
2018-03-30T07:02:33.692Z,13.33
2018-03-30T07:05:02.021Z,15.73
2018-03-30T07:07:29.625Z,17.60
2018-03-30T07:09:57.971Z,15.90
2018-03-30T07:12:25.606Z,13.67
2018-03-30T07:14:53.180Z,17.80
2018-03-30T07:17:20.768Z,16.07
2018-03-30T07:19:49.235Z,16.10
2018-03-30T07:22:16.861Z,14.80
2018-03-30T07:24:44.524Z,14.10
2018-03-30T07:27:12.103Z,15.60
2018-03-30T07:29:39.718Z,15.30
2018-03-30T07:32:07.306Z,17.70
2018-03-30T07:34:34.902Z,15.63
2018-03-30T07:37:02.472Z,16.47
2018-03-30T07:39:30.053Z,17.57
2018-03-30T07:41:58.392Z,15.40
2018-03-30T07:44:26.002Z,17.30
2018-03-30T07:46:53.587Z,13.67
2018-03-30T07:49:21.920Z,14.03
2018-03-30T07:51:49.482Z,19.43
2018-03-30T07:54:17.111Z,16.00
2018-03-30T07:56:44.679Z,16.00
2018-03-30T07:59:12.252Z,15.27
2018-03-30T08:01:39.848Z,15.33
2018-03-30T08:04:07.453Z,16.30
2018-03-30T08:06:35.028Z,15.27
2018-03-30T08:09:06.471Z,15.97
2018-03-30T08:11:33.999Z,18.17
2018-03-30T08:14:01.559Z,8.20
2018-03-30T08:16:29.114Z,15.90
2018-03-30T08:18:56.696Z,17.03
2018-03-30T08:21:24.297Z,15.03
2018-03-30T08:23:52.700Z,16.03
2018-03-30T08:26:20.382Z,15.20
2018-03-30T08:28:47.956Z,15.60
2018-03-30T08:31:15.559Z,13.80
2018-03-30T08:33:43.902Z,13.30
2018-03-30T08:36:11.485Z,11.77
2018-03-30T08:38:39.054Z,13.57
2018-03-30T08:41:07.410Z,13.73
2018-03-30T08:43:34.977Z,12.80
2018-03-30T08:46:02.633Z,9.87
2018-03-30T08:48:30.191Z,11.70
2018-03-30T08:50:57.771Z,12.10
2018-03-30T08:53:26.103Z,9.03
2018-03-30T08:55:53.716Z,10.30
2018-03-30T08:58:21.563Z,7.50
2018-03-30T09:00:50.145Z,6.87
2018-03-30T09:03:17.718Z,5.90
2018-03-30T09:05:45.346Z,5.47
2018-03-30T09:08:12.905Z,6.43
2018-03-30T09:10:40.497Z,6.97
2018-03-30T09:13:08.109Z,3.70
2018-03-30T09:15:35.798Z,5.10
2018-03-30T09:18:03.351Z,4.33
2018-03-30T09:20:31.021Z,4.20
2018-03-30T09:22:58.565Z,4.33
2018-03-30T09:25:26.209Z,5.37
2018-03-30T09:27:54.522Z,4.13
2018-03-30T09:30:22.097Z,3.30
2018-03-30T09:32:49.672Z,3.73
2018-03-30T09:35:18.046Z,2.80
2018-03-30T09:37:46.396Z,2.77
2018-03-30T09:40:14.021Z,2.63
2018-03-30T09:42:41.605Z,3.13
2018-03-30T09:45:09.163Z,1.90
2018-03-30T09:47:36.751Z,2.27
2018-03-30T09:50:04.314Z,2.40
2018-03-30T09:52:31.898Z,2.97
2018-03-30T09:55:00.228Z,2.20
2018-03-30T09:57:27.833Z,1.93
2018-03-30T09:59:56.186Z,2.00
2018-03-30T10:02:28.829Z,1.60
2018-03-30T10:05:01.393Z,1.97
2018-03-30T10:07:28.989Z,2.10
2018-03-30T10:09:58.197Z,2.70
2018-03-30T10:12:25.823Z,1.93
2018-03-30T10:14:53.406Z,1.67
2018-03-30T10:17:20.989Z,1.93
2018-03-30T10:19:48.556Z,2.00
2018-03-30T10:22:16.135Z,1.80
2018-03-30T10:24:43.723Z,1.70
2018-03-30T10:27:11.370Z,1.93
2018-03-30T10:29:38.927Z,1.83
2018-03-30T10:32:06.576Z,1.67
2018-03-30T10:34:34.946Z,1.50
2018-03-30T10:37:03.296Z,1.20
2018-03-30T10:39:30.861Z,1.37
2018-03-30T10:41:58.493Z,1.30
2018-03-30T10:44:26.065Z,1.87
2018-03-30T10:46:53.663Z,1.10
2018-03-30T10:49:22.025Z,1.23
2018-03-30T10:51:49.615Z,1.13
2018-03-30T10:54:18.046Z,1.30
2018-03-30T10:56:46.435Z,1.03
2018-03-30T10:59:14.070Z,1.07
2018-03-30T11:01:41.684Z,1.13
2018-03-30T11:04:09.337Z,1.27
2018-03-30T11:06:36.916Z,1.33
2018-03-30T11:09:04.512Z,1.73
2018-03-30T11:11:32.842Z,1.40
2018-03-30T11:14:00.460Z,1.20
2018-03-30T11:16:28.030Z,1.10
2018-03-30T11:18:55.621Z,1.83
2018-03-30T11:21:23.198Z,1.13
2018-03-30T11:23:53.439Z,1.10
2018-03-30T11:26:21.267Z,1.17
2018-03-30T11:28:49.755Z,1.03
2018-03-30T11:31:18.420Z,2.10
2018-03-30T11:33:46.772Z,1.47
2018-03-30T11:36:14.367Z,1.30
2018-03-30T11:38:42.708Z,1.13
2018-03-30T11:41:10.355Z,1.80
2018-03-30T11:43:37.970Z,2.60
2018-03-30T11:46:06.731Z,2.30
2018-03-30T11:48:34.349Z,1.67
2018-03-30T11:51:01.954Z,1.13
2018-03-30T11:53:29.736Z,1.60
2018-03-30T11:55:58.174Z,1.80
2018-03-30T11:58:25.963Z,1.70
2018-03-30T12:00:53.593Z,1.07
2018-03-30T12:03:21.202Z,1.30
2018-03-30T12:05:48.802Z,1.30
2018-03-30T12:08:16.386Z,1.43
2018-03-30T12:10:44.138Z,1.57
2018-03-30T12:13:11.702Z,1.60
2018-03-30T12:15:40.150Z,1.47
2018-03-30T12:18:07.874Z,2.33
2018-03-30T12:20:35.514Z,1.80
2018-03-30T12:23:03.079Z,1.50
2018-03-30T12:25:30.764Z,1.37
2018-03-30T12:27:58.382Z,1.40
2018-03-30T12:30:29.469Z,1.33
2018-03-30T12:32:57.394Z,1.17
2018-03-30T12:35:25.059Z,1.67
2018-03-30T12:37:52.685Z,1.20
2018-03-30T12:40:21.114Z,1.50
2018-03-30T12:42:48.801Z,2.13
2018-03-30T12:45:16.700Z,1.77
2018-03-30T12:47:44.292Z,1.70
2018-03-30T12:50:11.884Z,2.00
2018-03-30T12:52:39.516Z,2.17
2018-03-30T12:55:07.128Z,1.80
2018-03-30T12:57:35.489Z,1.80
2018-03-30T13:00:04.167Z,1.90
2018-03-30T13:02:31.752Z,1.97
2018-03-30T13:05:00.106Z,2.10
2018-03-30T13:07:27.685Z,2.47
2018-03-30T13:09:55.545Z,2.40
2018-03-30T13:12:23.128Z,2.37
2018-03-30T13:14:51.507Z,2.60
2018-03-30T13:17:19.872Z,5.10
2018-03-30T13:19:47.436Z,3.47
2018-03-30T13:22:15.791Z,3.23
2018-03-30T13:24:43.338Z,2.90
2018-03-30T13:27:10.923Z,2.67
2018-03-30T13:29:38.552Z,3.30
2018-03-30T13:32:06.141Z,2.70
2018-03-30T13:34:33.706Z,6.77
2018-03-30T13:37:03.125Z,2.70
2018-03-30T13:39:31.456Z,2.93
2018-03-30T13:41:59.128Z,4.20
2018-03-30T13:44:26.748Z,3.00
2018-03-30T13:46:54.323Z,3.07
2018-03-30T13:49:22.009Z,2.50
2018-03-30T13:52:02.694Z,3.27
2018-03-30T13:54:40.759Z,2.50
2018-03-30T13:57:09.702Z,2.07
2018-03-30T13:59:39.154Z,2.50
2018-03-30T14:02:30.440Z,2.27
2018-03-30T14:07:57.312Z,2.07
2018-03-30T14:10:40.379Z,2.83
2018-03-30T14:13:07.965Z,2.10
2018-03-30T14:15:37.705Z,1.87
2018-03-30T14:18:11.268Z,2.40
2018-03-30T14:20:45.797Z,3.53
2018-03-30T14:23:26.876Z,2.60
2018-03-30T14:26:01.704Z,2.10
2018-03-30T14:28:30.075Z,3.90
2018-03-30T14:31:17.423Z,2.10
2018-03-30T14:33:45.390Z,2.37
2018-03-30T14:36:17.936Z,2.17
2018-03-30T14:38:49.972Z,3.63
2018-03-30T14:41:17.629Z,2.13
2018-03-30T14:43:46.048Z,1.43
2018-03-30T14:46:29.229Z,2.47
2018-03-30T14:49:07.783Z,2.23
2018-03-30T14:54:42.468Z,2.30
2018-03-30T14:57:12.800Z,1.60
2018-03-30T14:59:44.302Z,1.70
2018-03-30T15:02:26.546Z,2.00
2018-03-30T15:05:12.908Z,2.13
2018-03-30T15:07:45.175Z,2.23
2018-03-30T15:13:15.162Z,1.77
2018-03-30T15:18:44.366Z,2.10
2018-03-30T15:21:33.488Z,3.43
2018-03-30T15:24:01.925Z,2.30
2018-03-30T15:26:31.891Z,1.90
2018-03-30T15:29:05.306Z,2.37
2018-03-30T15:31:40.704Z,2.43
2018-03-30T15:34:10.199Z,2.47
2018-03-30T15:36:41.473Z,2.53
2018-03-30T15:39:09.111Z,2.00
2018-03-30T15:41:40.451Z,3.27
2018-03-30T15:44:11.574Z,2.00
2018-03-30T15:46:48.453Z,4.47
2018-03-30T15:49:17.007Z,3.30
2018-03-30T15:51:52.849Z,2.67
2018-03-30T15:54:20.006Z,3.67
2018-03-30T15:56:59.358Z,2.50
2018-03-30T15:59:28.519Z,2.90
2018-03-30T16:01:56.433Z,3.50
2018-03-30T16:04:24.788Z,2.87
2018-03-30T16:06:52.780Z,2.97
2018-03-30T16:09:26.093Z,2.33
2018-03-30T16:11:54.655Z,2.10
2018-03-30T16:14:23.027Z,2.40
2018-03-30T16:16:51.437Z,2.60
2018-03-30T16:19:18.579Z,3.33
2018-03-30T16:21:46.435Z,3.97
2018-03-30T16:24:14.321Z,2.57
2018-03-30T16:26:41.493Z,3.07
2018-03-30T16:29:08.590Z,1.93
2018-03-30T16:31:35.731Z,3.10
2018-03-30T16:34:03.864Z,2.10
2018-03-30T16:36:30.979Z,2.80
2018-03-30T16:38:58.360Z,2.13
2018-03-30T16:41:25.452Z,2.27
2018-03-30T16:43:52.569Z,2.17
2018-03-30T16:46:19.679Z,2.07
2018-03-30T16:48:46.768Z,2.27
2018-03-30T16:51:14.326Z,2.80
2018-03-30T16:53:41.462Z,1.97
2018-03-30T16:56:08.698Z,1.50
2018-03-30T16:58:35.800Z,2.63
2018-03-30T17:01:02.935Z,2.03
2018-03-30T17:03:30.051Z,3.27
2018-03-30T17:05:57.941Z,3.57
2018-03-30T17:08:25.012Z,2.00
2018-03-30T17:10:52.124Z,2.13
2018-03-30T17:13:19.205Z,2.27
2018-03-30T17:15:46.304Z,2.20
2018-03-30T17:18:14.240Z,2.33
2018-03-30T17:20:45.685Z,2.33
2018-03-30T17:23:13.255Z,3.23
2018-03-30T17:25:41.051Z,6.77
2018-03-30T17:28:08.147Z,2.87
2018-03-30T17:30:35.254Z,3.90
2018-03-30T17:33:02.418Z,4.13
2018-03-30T17:35:30.299Z,3.07
2018-03-30T17:37:58.136Z,2.30
2018-03-30T17:40:25.219Z,2.93
2018-03-30T17:42:52.330Z,2.03
2018-03-30T17:45:20.174Z,2.43
2018-03-30T17:47:47.273Z,2.90
2018-03-30T17:50:14.453Z,1.87
2018-03-30T17:52:41.608Z,2.30
2018-03-30T17:55:08.755Z,4.30
2018-03-30T17:57:35.875Z,2.60
2018-03-30T18:00:03.816Z,2.53
2018-03-30T18:02:30.967Z,2.97
2018-03-30T18:04:58.096Z,4.43
2018-03-30T18:07:25.220Z,6.30
2018-03-30T18:09:52.373Z,4.63
2018-03-30T18:12:19.455Z,6.50
2018-03-30T18:14:46.560Z,5.00
2018-03-30T18:17:13.695Z,3.47
2018-03-30T18:19:40.926Z,5.77
2018-03-30T18:22:08.832Z,4.70
2018-03-30T18:24:35.919Z,4.87
2018-03-30T18:27:03.264Z,3.83
2018-03-30T18:29:30.351Z,4.63
2018-03-30T18:31:57.481Z,4.47
2018-03-30T18:34:25.356Z,4.20
2018-03-30T18:36:53.233Z,5.90
2018-03-30T18:39:21.092Z,4.63
2018-03-30T18:41:48.956Z,4.10
2018-03-30T18:44:16.801Z,5.10
2018-03-30T18:46:43.900Z,4.43
2018-03-30T18:49:10.995Z,5.33
2018-03-30T18:51:38.086Z,4.70
2018-03-30T18:54:06.083Z,4.03
2018-03-30T18:56:33.943Z,4.67
2018-03-30T18:59:01.902Z,5.63
2018-03-30T19:01:29.825Z,9.77
2018-03-30T19:03:56.967Z,5.40
2018-03-30T19:06:24.038Z,6.97
2018-03-30T19:08:51.911Z,4.37
2018-03-30T19:11:20.722Z,8.57
2018-03-30T19:13:47.853Z,5.60
2018-03-30T19:16:15.733Z,5.73
2018-03-30T19:18:42.835Z,3.63
2018-03-30T19:21:09.961Z,8.17
2018-03-30T19:23:37.224Z,9.73
2018-03-30T19:26:04.330Z,4.77
2018-03-30T19:28:32.183Z,4.23
2018-03-30T19:31:00.007Z,4.23
2018-03-30T19:33:28.133Z,4.07
2018-03-30T19:35:55.230Z,3.53
2018-03-30T19:38:22.345Z,3.67
2018-03-30T19:40:49.425Z,6.73
2018-03-30T19:43:17.318Z,4.43
2018-03-30T19:45:44.376Z,3.63
2018-03-30T19:48:11.516Z,3.50
2018-03-30T19:50:38.595Z,3.77
2018-03-30T19:53:05.704Z,4.10
2018-03-30T19:55:32.776Z,3.97
2018-03-30T19:57:59.882Z,5.00
2018-03-30T20:00:27.748Z,3.70
2018-03-30T20:02:55.600Z,4.20
2018-03-30T20:05:23.444Z,4.40
2018-03-30T20:07:50.564Z,4.17
2018-03-30T20:10:17.645Z,5.07
2018-03-30T20:12:45.582Z,5.83
2018-03-30T20:15:12.669Z,4.00
2018-03-30T20:17:39.749Z,5.90
2018-03-30T20:20:07.612Z,4.33
2018-03-30T20:22:35.452Z,4.53
2018-03-30T20:25:02.620Z,4.20
2018-03-30T20:27:30.472Z,6.60
2018-03-30T20:29:57.563Z,4.67
2018-03-30T20:32:24.732Z,7.00
2018-03-30T20:34:51.835Z,5.10
2018-03-30T20:37:19.660Z,7.53
2018-03-30T20:39:46.776Z,6.33
2018-03-30T20:42:13.863Z,5.30
2018-03-30T20:44:41.376Z,7.93
2018-03-30T20:47:08.467Z,11.03
2018-03-30T20:49:35.549Z,7.70
2018-03-30T20:52:03.388Z,8.43
2018-03-30T20:54:30.496Z,7.00
2018-03-30T20:56:58.021Z,9.50
2018-03-30T20:59:25.881Z,6.60
2018-03-30T21:01:53.725Z,7.33
2018-03-30T21:04:20.818Z,10.73
2018-03-30T21:06:47.981Z,9.07
2018-03-30T21:09:15.080Z,11.67
2018-03-30T21:11:42.433Z,9.73
2018-03-30T21:14:10.354Z,15.33
2018-03-30T21:16:37.406Z,13.77
2018-03-30T21:19:04.504Z,11.20
2018-03-30T21:21:32.485Z,10.60
2018-03-30T21:23:59.733Z,8.90
2018-03-30T21:26:26.938Z,8.20
2018-03-30T21:28:54.799Z,12.00
2018-03-30T21:31:21.872Z,8.93
2018-03-30T21:33:49.779Z,8.33
2018-03-30T21:36:16.922Z,9.57
2018-03-30T21:38:44.004Z,11.33
2018-03-30T21:41:11.118Z,8.47
2018-03-30T21:43:38.244Z,7.57
2018-03-30T21:46:05.347Z,7.90
2018-03-30T21:48:32.437Z,8.33
2018-03-30T21:51:00.677Z,8.53
2018-03-30T21:53:31.273Z,8.57
2018-03-30T21:55:58.425Z,8.73
2018-03-30T21:58:25.625Z,9.60
2018-03-30T22:00:53.481Z,9.63
2018-03-30T22:03:21.311Z,6.40
2018-03-30T22:05:48.410Z,7.60
2018-03-30T22:08:16.266Z,6.97
2018-03-30T22:10:44.245Z,11.50
2018-03-30T22:13:12.080Z,7.53
2018-03-30T22:15:39.203Z,7.37
2018-03-30T22:18:06.350Z,8.17
2018-03-30T22:20:33.475Z,9.90
2018-03-30T22:23:00.586Z,7.07
2018-03-30T22:25:35.400Z,7.00
2018-03-30T22:28:02.899Z,8.60
2018-03-30T22:30:31.314Z,7.60
2018-03-30T22:32:58.594Z,7.17
2018-03-30T22:35:25.837Z,6.53
2018-03-30T22:37:53.311Z,7.23
2018-03-30T22:40:20.404Z,9.13
2018-03-30T22:42:48.097Z,10.13
2018-03-30T22:45:15.206Z,7.20
2018-03-30T22:47:43.087Z,7.50
2018-03-30T22:50:10.193Z,7.90
2018-03-30T22:52:37.342Z,7.47
2018-03-30T22:55:04.451Z,7.73
2018-03-30T22:57:31.566Z,7.30
2018-03-30T22:59:59.411Z,7.07
2018-03-30T23:02:26.508Z,6.47
2018-03-30T23:04:53.594Z,7.57
2018-03-30T23:07:20.711Z,6.57
2018-03-30T23:09:47.814Z,8.40
2018-03-30T23:12:15.678Z,6.50
2018-03-30T23:14:43.621Z,6.07
2018-03-30T23:17:10.739Z,6.30
2018-03-30T23:19:37.953Z,7.57
2018-03-30T23:22:05.831Z,5.70
2018-03-30T23:24:33.672Z,6.60
2018-03-30T23:27:00.880Z,6.67
2018-03-30T23:29:27.955Z,6.10
2018-03-30T23:31:55.057Z,5.00
2018-03-30T23:34:22.129Z,5.63
2018-03-30T23:36:49.204Z,5.17
2018-03-30T23:39:16.317Z,6.30
2018-03-30T23:41:43.473Z,5.70
2018-03-30T23:44:10.594Z,5.50
2018-03-30T23:46:37.715Z,7.80
2018-03-30T23:49:04.839Z,6.23
2018-03-30T23:51:31.950Z,6.57
2018-03-30T23:53:59.066Z,6.43
2018-03-30T23:56:26.165Z,5.60
2018-03-30T23:58:53.266Z,6.43
